Terminal Aerodrome Forecast
Issued by NWS Louisville, KY

Home | Current Version | Previous Version | Text Only | Print | Product List | Glossary On
Versions: 1 2 3 4 5 6 7 8 9 10 11 12 13 14 15 16 17 18 19 20
000
FTUS43 KLMK 231826 AAB
TAFSDF
TAF AMD
KSDF 231826Z 2318/2424 24010G19KT 6SM BR VCSH BKN015
      TEMPO 2318/2320 3SM -RA
     FM232300 25010KT P6SM -SHRA SCT015 BKN025
     FM240100 25009KT P6SM VCSH BKN040 BKN045
     FM240300 24006KT P6SM SCT070 BKN100
     FM240800 25009KT P6SM BKN015
     FM241300 26013G23KT P6SM BKN025=

USA.gov is the U.S. government's official web portal to all federal, state and local government web resources and services.